sensor_id;sensor_type;location;lat;lon;timestamp;P1;durP1;ratioP1;P2;durP2;ratioP2
56329;SDS011;42236;48.058;10.632;2022-09-29T00:02:15;0.30;;;0.30;;
56329;SDS011;42236;48.058;10.632;2022-09-29T00:04:41;0.93;;;0.70;;
56329;SDS011;42236;48.058;10.632;2022-09-29T00:07:06;2.40;;;0.40;;
56329;SDS011;42236;48.058;10.632;2022-09-29T00:09:31;0.40;;;0.40;;
56329;SDS011;42236;48.058;10.632;2022-09-29T00:11:56;0.30;;;0.30;;
56329;SDS011;42236;48.058;10.632;2022-09-29T00:14:22;0.47;;;0.40;;
56329;SDS011;42236;48.058;10.632;2022-09-29T00:16:48;0.80;;;0.43;;
56329;SDS011;42236;48.058;10.632;2022-09-29T00:19:13;3.93;;;0.70;;
56329;SDS011;42236;48.058;10.632;2022-09-29T00:21:39;1.00;;;0.70;;
56329;SDS011;42236;48.058;10.632;2022-09-29T00:24:04;0.63;;;0.60;;
56329;SDS011;42236;48.058;10.632;2022-09-29T00:26:30;0.70;;;0.70;;
56329;SDS011;42236;48.058;10.632;2022-09-29T00:28:57;0.73;;;0.70;;
56329;SDS011;42236;48.058;10.632;2022-09-29T00:31:23;1.17;;;0.60;;
56329;SDS011;42236;48.058;10.632;2022-09-29T00:33:50;0.50;;;0.50;;
56329;SDS011;42236;48.058;10.632;2022-09-29T00:36:16;0.67;;;0.67;;
56329;SDS011;42236;48.058;10.632;2022-09-29T00:38:43;0.50;;;0.50;;
56329;SDS011;42236;48.058;10.632;2022-09-29T00:41:12;2.33;;;0.83;;
56329;SDS011;42236;48.058;10.632;2022-09-29T00:43:49;0.70;;;0.70;;
56329;SDS011;42236;48.058;10.632;2022-09-29T00:49:10;0.87;;;0.80;;
56329;SDS011;42236;48.058;10.632;2022-09-29T00:51:51;0.60;;;0.60;;
56329;SDS011;42236;48.058;10.632;2022-09-29T00:54:20;2.13;;;0.70;;
56329;SDS011;42236;48.058;10.632;2022-09-29T00:56:51;1.73;;;0.50;;
56329;SDS011;42236;48.058;10.632;2022-09-29T00:59:18;0.50;;;0.50;;
56329;SDS011;42236;48.058;10.632;2022-09-29T01:01:52;0.60;;;0.60;;
56329;SDS011;42236;48.058;10.632;2022-09-29T01:04:18;0.47;;;0.47;;
56329;SDS011;42236;48.058;10.632;2022-09-29T01:06:52;0.40;;;0.40;;
56329;SDS011;42236;48.058;10.632;2022-09-29T01:09:22;0.50;;;0.50;;
56329;SDS011;42236;48.058;10.632;2022-09-29T01:11:51;0.60;;;0.60;;
56329;SDS011;42236;48.058;10.632;2022-09-29T01:14:22;0.60;;;0.60;;
56329;SDS011;42236;48.058;10.632;2022-09-29T01:16:48;0.70;;;0.50;;
56329;SDS011;42236;48.058;10.632;2022-09-29T01:22:10;1.57;;;0.50;;
56329;SDS011;42236;48.058;10.632;2022-09-29T01:30:12;0.70;;;0.70;;
56329;SDS011;42236;48.058;10.632;2022-09-29T01:35:39;1.80;;;0.60;;
56329;SDS011;42236;48.058;10.632;2022-09-29T01:38:28;0.70;;;0.70;;
56329;SDS011;42236;48.058;10.632;2022-09-29T01:41:09;1.10;;;0.60;;
56329;SDS011;42236;48.058;10.632;2022-09-29T01:43:48;0.60;;;0.50;;
56329;SDS011;42236;48.058;10.632;2022-09-29T01:46:31;3.00;;;0.70;;
56329;SDS011;42236;48.058;10.632;2022-09-29T01:49:00;1.17;;;0.80;;
56329;SDS011;42236;48.058;10.632;2022-09-29T01:51:29;0.90;;;0.90;;
56329;SDS011;42236;48.058;10.632;2022-09-29T01:54:03;0.90;;;0.90;;
56329;SDS011;42236;48.058;10.632;2022-09-29T01:56:35;0.70;;;0.70;;
56329;SDS011;42236;48.058;10.632;2022-09-29T02:01:53;0.70;;;0.70;;
56329;SDS011;42236;48.058;10.632;2022-09-29T02:04:35;0.70;;;0.70;;
56329;SDS011;42236;48.058;10.632;2022-09-29T02:07:16;0.90;;;0.90;;
56329;SDS011;42236;48.058;10.632;2022-09-29T02:09:46;2.27;;;0.90;;
56329;SDS011;42236;48.058;10.632;2022-09-29T02:12:18;0.73;;;0.73;;
56329;SDS011;42236;48.058;10.632;2022-09-29T02:14:48;1.00;;;0.87;;
56329;SDS011;42236;48.058;10.632;2022-09-29T02:17:18;0.93;;;0.80;;
56329;SDS011;42236;48.058;10.632;2022-09-29T02:19:47;0.73;;;0.73;;
56329;SDS011;42236;48.058;10.632;2022-09-29T02:22:15;0.80;;;0.80;;
56329;SDS011;42236;48.058;10.632;2022-09-29T02:24:41;0.70;;;0.70;;
56329;SDS011;42236;48.058;10.632;2022-09-29T02:27:07;0.80;;;0.80;;
56329;SDS011;42236;48.058;10.632;2022-09-29T02:29:32;0.90;;;0.90;;
56329;SDS011;42236;48.058;10.632;2022-09-29T02:31:59;1.23;;;1.13;;
56329;SDS011;42236;48.058;10.632;2022-09-29T02:34:26;1.10;;;1.00;;
56329;SDS011;42236;48.058;10.632;2022-09-29T02:39:51;1.10;;;0.93;;
56329;SDS011;42236;48.058;10.632;2022-09-29T02:51:09;1.00;;;0.90;;
56329;SDS011;42236;48.058;10.632;2022-09-29T02:54:38;0.87;;;0.87;;
56329;SDS011;42236;48.058;10.632;2022-09-29T02:56:53;1.87;;;0.87;;
56329;SDS011;42236;48.058;10.632;2022-09-29T03:02:35;1.97;;;1.00;;
56329;SDS011;42236;48.058;10.632;2022-09-29T03:05:04;2.10;;;0.80;;
56329;SDS011;42236;48.058;10.632;2022-09-29T03:07:31;0.80;;;0.80;;
56329;SDS011;42236;48.058;10.632;2022-09-29T03:09:56;0.90;;;0.90;;
56329;SDS011;42236;48.058;10.632;2022-09-29T03:12:21;2.27;;;1.07;;
56329;SDS011;42236;48.058;10.632;2022-09-29T03:14:47;0.97;;;0.93;;
56329;SDS011;42236;48.058;10.632;2022-09-29T03:17:12;1.70;;;1.20;;
56329;SDS011;42236;48.058;10.632;2022-09-29T03:19:38;1.13;;;1.00;;
56329;SDS011;42236;48.058;10.632;2022-09-29T03:22:03;1.10;;;1.00;;
56329;SDS011;42236;48.058;10.632;2022-09-29T03:24:29;0.90;;;0.90;;
56329;SDS011;42236;48.058;10.632;2022-09-29T03:26:55;0.77;;;0.77;;
56329;SDS011;42236;48.058;10.632;2022-09-29T03:29:20;3.27;;;0.80;;
56329;SDS011;42236;48.058;10.632;2022-09-29T03:31:46;0.60;;;0.60;;
56329;SDS011;42236;48.058;10.632;2022-09-29T03:34:11;1.77;;;0.80;;
56329;SDS011;42236;48.058;10.632;2022-09-29T03:36:36;1.37;;;0.90;;
56329;SDS011;42236;48.058;10.632;2022-09-29T03:39:01;0.77;;;0.77;;
56329;SDS011;42236;48.058;10.632;2022-09-29T03:41:27;1.20;;;1.17;;
56329;SDS011;42236;48.058;10.632;2022-09-29T03:43:52;1.13;;;1.03;;
56329;SDS011;42236;48.058;10.632;2022-09-29T03:46:17;1.53;;;1.00;;
56329;SDS011;42236;48.058;10.632;2022-09-29T03:48:43;5.83;;;5.40;;
56329;SDS011;42236;48.058;10.632;2022-09-29T03:51:08;2.47;;;0.97;;
56329;SDS011;42236;48.058;10.632;2022-09-29T03:53:34;3.30;;;0.70;;
56329;SDS011;42236;48.058;10.632;2022-09-29T03:56:00;0.80;;;0.80;;
56329;SDS011;42236;48.058;10.632;2022-09-29T03:58:26;0.70;;;0.70;;
56329;SDS011;42236;48.058;10.632;2022-09-29T04:00:52;0.70;;;0.70;;
56329;SDS011;42236;48.058;10.632;2022-09-29T04:03:18;0.80;;;0.80;;
56329;SDS011;42236;48.058;10.632;2022-09-29T04:05:44;0.80;;;0.80;;
56329;SDS011;42236;48.058;10.632;2022-09-29T04:08:10;0.90;;;0.90;;
56329;SDS011;42236;48.058;10.632;2022-09-29T04:10:36;0.80;;;0.80;;
56329;SDS011;42236;48.058;10.632;2022-09-29T04:13:02;1.90;;;0.90;;
56329;SDS011;42236;48.058;10.632;2022-09-29T04:15:28;0.83;;;0.83;;
56329;SDS011;42236;48.058;10.632;2022-09-29T04:17:53;0.63;;;0.63;;
56329;SDS011;42236;48.058;10.632;2022-09-29T04:20:19;0.50;;;0.50;;
56329;SDS011;42236;48.058;10.632;2022-09-29T04:22:44;0.63;;;0.63;;
56329;SDS011;42236;48.058;10.632;2022-09-29T04:25:10;1.93;;;0.90;;
56329;SDS011;42236;48.058;10.632;2022-09-29T04:27:36;0.87;;;0.87;;
56329;SDS011;42236;48.058;10.632;2022-09-29T04:30:01;0.63;;;0.63;;
56329;SDS011;42236;48.058;10.632;2022-09-29T04:32:27;0.80;;;0.77;;
56329;SDS011;42236;48.058;10.632;2022-09-29T04:34:52;0.90;;;0.90;;
56329;SDS011;42236;48.058;10.632;2022-09-29T04:37:18;1.37;;;0.70;;
56329;SDS011;42236;48.058;10.632;2022-09-29T04:39:43;0.67;;;0.67;;
56329;SDS011;42236;48.058;10.632;2022-09-29T04:42:08;0.50;;;0.50;;
56329;SDS011;42236;48.058;10.632;2022-09-29T04:44:33;0.50;;;0.50;;
56329;SDS011;42236;48.058;10.632;2022-09-29T04:46:58;0.50;;;0.50;;
56329;SDS011;42236;48.058;10.632;2022-09-29T04:49:24;0.83;;;0.60;;
56329;SDS011;42236;48.058;10.632;2022-09-29T04:51:49;0.47;;;0.47;;
56329;SDS011;42236;48.058;10.632;2022-09-29T04:54:14;0.60;;;0.60;;
56329;SDS011;42236;48.058;10.632;2022-09-29T04:56:41;0.40;;;0.40;;
56329;SDS011;42236;48.058;10.632;2022-09-29T04:59:06;0.80;;;0.50;;
56329;SDS011;42236;48.058;10.632;2022-09-29T05:01:32;0.40;;;0.40;;
56329;SDS011;42236;48.058;10.632;2022-09-29T05:03:58;0.73;;;0.50;;
56329;SDS011;42236;48.058;10.632;2022-09-29T05:06:23;0.50;;;0.50;;
56329;SDS011;42236;48.058;10.632;2022-09-29T05:08:48;0.40;;;0.40;;
56329;SDS011;42236;48.058;10.632;2022-09-29T05:11:13;0.50;;;0.50;;
56329;SDS011;42236;48.058;10.632;2022-09-29T05:13:39;0.40;;;0.40;;
56329;SDS011;42236;48.058;10.632;2022-09-29T05:16:04;3.20;;;0.60;;
56329;SDS011;42236;48.058;10.632;2022-09-29T05:18:30;0.40;;;0.40;;
56329;SDS011;42236;48.058;10.632;2022-09-29T05:20:56;0.53;;;0.53;;
56329;SDS011;42236;48.058;10.632;2022-09-29T05:23:27;1.17;;;0.40;;
56329;SDS011;42236;48.058;10.632;2022-09-29T05:25:52;0.30;;;0.30;;
56329;SDS011;42236;48.058;10.632;2022-09-29T05:28:18;1.33;;;0.43;;
56329;SDS011;42236;48.058;10.632;2022-09-29T05:30:43;4.23;;;0.40;;
56329;SDS011;42236;48.058;10.632;2022-09-29T05:33:09;0.50;;;0.50;;
56329;SDS011;42236;48.058;10.632;2022-09-29T05:35:34;0.40;;;0.40;;
56329;SDS011;42236;48.058;10.632;2022-09-29T05:37:59;0.50;;;0.50;;
56329;SDS011;42236;48.058;10.632;2022-09-29T05:40:25;4.23;;;0.40;;
56329;SDS011;42236;48.058;10.632;2022-09-29T05:42:51;0.53;;;0.53;;
56329;SDS011;42236;48.058;10.632;2022-09-29T05:45:16;0.50;;;0.50;;
56329;SDS011;42236;48.058;10.632;2022-09-29T05:47:42;4.07;;;1.00;;
56329;SDS011;42236;48.058;10.632;2022-09-29T05:50:09;1.87;;;0.80;;
56329;SDS011;42236;48.058;10.632;2022-09-29T05:52:35;1.33;;;0.60;;
56329;SDS011;42236;48.058;10.632;2022-09-29T05:55:01;0.77;;;0.77;;
56329;SDS011;42236;48.058;10.632;2022-09-29T05:57:28;1.13;;;0.80;;
56329;SDS011;42236;48.058;10.632;2022-09-29T05:59:53;2.87;;;0.70;;
56329;SDS011;42236;48.058;10.632;2022-09-29T06:02:19;0.70;;;0.70;;
56329;SDS011;42236;48.058;10.632;2022-09-29T06:04:45;1.43;;;0.80;;
56329;SDS011;42236;48.058;10.632;2022-09-29T06:07:10;0.60;;;0.60;;
56329;SDS011;42236;48.058;10.632;2022-09-29T06:09:36;3.87;;;1.00;;
56329;SDS011;42236;48.058;10.632;2022-09-29T06:12:01;0.80;;;0.80;;
56329;SDS011;42236;48.058;10.632;2022-09-29T06:14:27;1.87;;;0.80;;
56329;SDS011;42236;48.058;10.632;2022-09-29T06:16:53;5.57;;;0.90;;
56329;SDS011;42236;48.058;10.632;2022-09-29T06:19:18;2.07;;;0.90;;
56329;SDS011;42236;48.058;10.632;2022-09-29T06:21:44;1.40;;;0.97;;
56329;SDS011;42236;48.058;10.632;2022-09-29T06:24:09;2.03;;;0.90;;
56329;SDS011;42236;48.058;10.632;2022-09-29T06:26:35;1.27;;;0.80;;
56329;SDS011;42236;48.058;10.632;2022-09-29T06:29:00;2.33;;;0.90;;
56329;SDS011;42236;48.058;10.632;2022-09-29T06:31:26;1.60;;;0.67;;
56329;SDS011;42236;48.058;10.632;2022-09-29T06:33:55;1.30;;;0.93;;
56329;SDS011;42236;48.058;10.632;2022-09-29T06:36:33;1.70;;;1.10;;
56329;SDS011;42236;48.058;10.632;2022-09-29T06:39:19;1.63;;;1.00;;
56329;SDS011;42236;48.058;10.632;2022-09-29T06:41:44;1.57;;;1.47;;
56329;SDS011;42236;48.058;10.632;2022-09-29T06:44:16;2.13;;;1.60;;
56329;SDS011;42236;48.058;10.632;2022-09-29T06:46:41;1.70;;;1.60;;
56329;SDS011;42236;48.058;10.632;2022-09-29T06:49:07;2.23;;;1.80;;
56329;SDS011;42236;48.058;10.632;2022-09-29T06:51:33;1.90;;;1.30;;
56329;SDS011;42236;48.058;10.632;2022-09-29T06:53:59;1.60;;;1.43;;
56329;SDS011;42236;48.058;10.632;2022-09-29T06:56:24;3.00;;;1.37;;
56329;SDS011;42236;48.058;10.632;2022-09-29T07:02:11;1.63;;;0.90;;
56329;SDS011;42236;48.058;10.632;2022-09-29T07:04:37;1.20;;;1.10;;
56329;SDS011;42236;48.058;10.632;2022-09-29T07:07:02;1.00;;;1.00;;
56329;SDS011;42236;48.058;10.632;2022-09-29T07:09:28;0.77;;;0.77;;
56329;SDS011;42236;48.058;10.632;2022-09-29T07:11:53;1.10;;;0.80;;
56329;SDS011;42236;48.058;10.632;2022-09-29T07:14:19;0.70;;;0.70;;
56329;SDS011;42236;48.058;10.632;2022-09-29T07:16:47;0.60;;;0.60;;
56329;SDS011;42236;48.058;10.632;2022-09-29T07:19:12;0.67;;;0.67;;
56329;SDS011;42236;48.058;10.632;2022-09-29T07:21:38;0.77;;;0.70;;
56329;SDS011;42236;48.058;10.632;2022-09-29T07:24:03;0.70;;;0.70;;
56329;SDS011;42236;48.058;10.632;2022-09-29T07:26:28;1.27;;;0.97;;
56329;SDS011;42236;48.058;10.632;2022-09-29T07:28:54;2.20;;;0.90;;
56329;SDS011;42236;48.058;10.632;2022-09-29T07:31:19;1.30;;;0.90;;
56329;SDS011;42236;48.058;10.632;2022-09-29T07:33:46;1.03;;;1.03;;
56329;SDS011;42236;48.058;10.632;2022-09-29T07:36:14;1.80;;;1.10;;
56329;SDS011;42236;48.058;10.632;2022-09-29T07:38:41;3.67;;;1.33;;
56329;SDS011;42236;48.058;10.632;2022-09-29T07:41:09;1.30;;;1.20;;
56329;SDS011;42236;48.058;10.632;2022-09-29T07:43:35;1.33;;;1.10;;
56329;SDS011;42236;48.058;10.632;2022-09-29T07:46:01;2.77;;;0.90;;
56329;SDS011;42236;48.058;10.632;2022-09-29T07:48:27;0.83;;;0.83;;
56329;SDS011;42236;48.058;10.632;2022-09-29T07:51:03;2.20;;;1.10;;
56329;SDS011;42236;48.058;10.632;2022-09-29T07:53:29;1.43;;;0.70;;
56329;SDS011;42236;48.058;10.632;2022-09-29T07:55:56;1.47;;;1.10;;
56329;SDS011;42236;48.058;10.632;2022-09-29T07:58:27;1.30;;;1.03;;
56329;SDS011;42236;48.058;10.632;2022-09-29T08:00:53;1.90;;;1.07;;
56329;SDS011;42236;48.058;10.632;2022-09-29T08:03:19;5.80;;;1.80;;
56329;SDS011;42236;48.058;10.632;2022-09-29T08:05:44;1.30;;;1.20;;
56329;SDS011;42236;48.058;10.632;2022-09-29T08:08:09;4.93;;;3.03;;
56329;SDS011;42236;48.058;10.632;2022-09-29T08:10:35;4.60;;;3.47;;
56329;SDS011;42236;48.058;10.632;2022-09-29T08:13:00;3.60;;;2.40;;
56329;SDS011;42236;48.058;10.632;2022-09-29T08:15:25;2.23;;;1.73;;
56329;SDS011;42236;48.058;10.632;2022-09-29T08:17:51;2.23;;;1.40;;
56329;SDS011;42236;48.058;10.632;2022-09-29T08:20:18;1.60;;;1.33;;
56329;SDS011;42236;48.058;10.632;2022-09-29T08:22:44;1.60;;;1.30;;
56329;SDS011;42236;48.058;10.632;2022-09-29T08:25:09;4.10;;;1.30;;
56329;SDS011;42236;48.058;10.632;2022-09-29T08:27:34;1.77;;;1.67;;
56329;SDS011;42236;48.058;10.632;2022-09-29T08:29:59;3.17;;;1.80;;
56329;SDS011;42236;48.058;10.632;2022-09-29T08:32:25;1.60;;;1.10;;
56329;SDS011;42236;48.058;10.632;2022-09-29T08:34:50;1.63;;;1.07;;
56329;SDS011;42236;48.058;10.632;2022-09-29T08:37:16;1.80;;;1.47;;
56329;SDS011;42236;48.058;10.632;2022-09-29T08:39:42;6.03;;;1.00;;
56329;SDS011;42236;48.058;10.632;2022-09-29T08:42:12;3.13;;;1.00;;
56329;SDS011;42236;48.058;10.632;2022-09-29T08:44:54;1.90;;;1.10;;
56329;SDS011;42236;48.058;10.632;2022-09-29T08:50:05;0.70;;;0.70;;
56329;SDS011;42236;48.058;10.632;2022-09-29T08:52:39;0.70;;;0.70;;
56329;SDS011;42236;48.058;10.632;2022-09-29T08:57:37;1.60;;;0.90;;
56329;SDS011;42236;48.058;10.632;2022-09-29T09:00:03;0.60;;;0.60;;
56329;SDS011;42236;48.058;10.632;2022-09-29T09:02:54;0.63;;;0.63;;
56329;SDS011;42236;48.058;10.632;2022-09-29T09:08:02;0.47;;;0.47;;
56329;SDS011;42236;48.058;10.632;2022-09-29T09:10:42;0.60;;;0.50;;
56329;SDS011;42236;48.058;10.632;2022-09-29T09:15:40;1.03;;;0.70;;
56329;SDS011;42236;48.058;10.632;2022-09-29T09:21:09;2.50;;;1.23;;
56329;SDS011;42236;48.058;10.632;2022-09-29T09:26:20;36.60;;;16.73;;
56329;SDS011;42236;48.058;10.632;2022-09-29T09:28:56;1.17;;;1.10;;
56329;SDS011;42236;48.058;10.632;2022-09-29T09:34:38;0.83;;;0.70;;
56329;SDS011;42236;48.058;10.632;2022-09-29T09:42:59;1.07;;;0.60;;
56329;SDS011;42236;48.058;10.632;2022-09-29T09:45:36;1.00;;;0.90;;
56329;SDS011;42236;48.058;10.632;2022-09-29T09:50:55;0.30;;;0.30;;
56329;SDS011;42236;48.058;10.632;2022-09-29T09:53:26;0.30;;;0.30;;
56329;SDS011;42236;48.058;10.632;2022-09-29T09:59:31;0.50;;;0.40;;
56329;SDS011;42236;48.058;10.632;2022-09-29T10:02:03;1.80;;;0.57;;
56329;SDS011;42236;48.058;10.632;2022-09-29T10:04:29;0.63;;;0.60;;
56329;SDS011;42236;48.058;10.632;2022-09-29T10:06:55;0.60;;;0.60;;
56329;SDS011;42236;48.058;10.632;2022-09-29T10:09:21;0.40;;;0.40;;
56329;SDS011;42236;48.058;10.632;2022-09-29T10:11:47;0.33;;;0.33;;
56329;SDS011;42236;48.058;10.632;2022-09-29T10:14:18;0.60;;;0.60;;
56329;SDS011;42236;48.058;10.632;2022-09-29T10:16:48;0.50;;;0.50;;
56329;SDS011;42236;48.058;10.632;2022-09-29T10:19:20;0.40;;;0.40;;
56329;SDS011;42236;48.058;10.632;2022-09-29T10:21:47;0.50;;;0.50;;
56329;SDS011;42236;48.058;10.632;2022-09-29T10:24:21;1.03;;;0.50;;
56329;SDS011;42236;48.058;10.632;2022-09-29T10:26:53;0.40;;;0.40;;
56329;SDS011;42236;48.058;10.632;2022-09-29T10:32:12;0.83;;;0.40;;
56329;SDS011;42236;48.058;10.632;2022-09-29T10:34:41;0.50;;;0.50;;
56329;SDS011;42236;48.058;10.632;2022-09-29T10:39:47;0.90;;;0.50;;
56329;SDS011;42236;48.058;10.632;2022-09-29T10:45:15;0.40;;;0.40;;
56329;SDS011;42236;48.058;10.632;2022-09-29T10:56:08;0.50;;;0.50;;
56329;SDS011;42236;48.058;10.632;2022-09-29T10:58:40;1.13;;;0.40;;
56329;SDS011;42236;48.058;10.632;2022-09-29T11:01:12;1.60;;;0.60;;
56329;SDS011;42236;48.058;10.632;2022-09-29T11:03:40;0.50;;;0.50;;
56329;SDS011;42236;48.058;10.632;2022-09-29T11:06:13;0.30;;;0.30;;
56329;SDS011;42236;48.058;10.632;2022-09-29T11:13:53;0.60;;;0.60;;
56329;SDS011;42236;48.058;10.632;2022-09-29T11:24:58;1.93;;;1.00;;
56329;SDS011;42236;48.058;10.632;2022-09-29T11:30:41;1.07;;;0.70;;
56329;SDS011;42236;48.058;10.632;2022-09-29T11:44:30;0.60;;;0.45;;
56329;SDS011;42236;48.058;10.632;2022-09-29T11:57:11;1.42;;;1.10;;
56329;SDS011;42236;48.058;10.632;2022-09-29T11:59:50;1.20;;;0.70;;
56329;SDS011;42236;48.058;10.632;2022-09-29T12:05:58;1.30;;;1.20;;
56329;SDS011;42236;48.058;10.632;2022-09-29T12:08:49;1.40;;;0.80;;
56329;SDS011;42236;48.058;10.632;2022-09-29T12:11:39;1.30;;;1.20;;
56329;SDS011;42236;48.058;10.632;2022-09-29T12:16:57;2.83;;;1.30;;
56329;SDS011;42236;48.058;10.632;2022-09-29T12:19:27;0.90;;;0.90;;
56329;SDS011;42236;48.058;10.632;2022-09-29T12:21:58;1.27;;;0.93;;
56329;SDS011;42236;48.058;10.632;2022-09-29T12:27:02;2.20;;;1.57;;
56329;SDS011;42236;48.058;10.632;2022-09-29T12:29:36;3.15;;;1.67;;
56329;SDS011;42236;48.058;10.632;2022-09-29T12:32:17;1.00;;;0.90;;
56329;SDS011;42236;48.058;10.632;2022-09-29T12:34:51;2.70;;;1.10;;
56329;SDS011;42236;48.058;10.632;2022-09-29T12:37:38;1.27;;;0.83;;
56329;SDS011;42236;48.058;10.632;2022-09-29T12:45:59;0.80;;;0.30;;
56329;SDS011;42236;48.058;10.632;2022-09-29T12:51:21;4.97;;;1.77;;
56329;SDS011;42236;48.058;10.632;2022-09-29T12:56:47;1.10;;;0.63;;
56329;SDS011;42236;48.058;10.632;2022-09-29T12:59:24;1.53;;;0.80;;
56329;SDS011;42236;48.058;10.632;2022-09-29T13:01:57;2.53;;;1.10;;
56329;SDS011;42236;48.058;10.632;2022-09-29T13:19:14;0.53;;;0.40;;
56329;SDS011;42236;48.058;10.632;2022-09-29T13:21:18;0.87;;;0.40;;
56329;SDS011;42236;48.058;10.632;2022-09-29T13:29:32;0.60;;;0.50;;
56329;SDS011;42236;48.058;10.632;2022-09-29T13:32:07;1.17;;;0.50;;
56329;SDS011;42236;48.058;10.632;2022-09-29T13:34:34;0.30;;;0.30;;
56329;SDS011;42236;48.058;10.632;2022-09-29T13:37:12;1.27;;;0.40;;
56329;SDS011;42236;48.058;10.632;2022-09-29T13:39:41;0.47;;;0.40;;
56329;SDS011;42236;48.058;10.632;2022-09-29T13:42:24;0.40;;;0.40;;
56329;SDS011;42236;48.058;10.632;2022-09-29T13:47:46;0.60;;;0.50;;
56329;SDS011;42236;48.058;10.632;2022-09-29T13:58:28;0.83;;;0.30;;
56329;SDS011;42236;48.058;10.632;2022-09-29T14:01:03;0.70;;;0.40;;
56329;SDS011;42236;48.058;10.632;2022-09-29T14:06:13;0.40;;;0.40;;
56329;SDS011;42236;48.058;10.632;2022-09-29T14:08:43;0.40;;;0.40;;
56329;SDS011;42236;48.058;10.632;2022-09-29T14:11:17;0.33;;;0.33;;
56329;SDS011;42236;48.058;10.632;2022-09-29T14:14:04;0.40;;;0.40;;
56329;SDS011;42236;48.058;10.632;2022-09-29T14:21:58;0.60;;;0.50;;
56329;SDS011;42236;48.058;10.632;2022-09-29T14:30:00;0.40;;;0.40;;
56329;SDS011;42236;48.058;10.632;2022-09-29T14:35:24;0.50;;;0.50;;
56329;SDS011;42236;48.058;10.632;2022-09-29T14:38:03;0.60;;;0.40;;
56329;SDS011;42236;48.058;10.632;2022-09-29T14:40:34;0.75;;;0.50;;
56329;SDS011;42236;48.058;10.632;2022-09-29T14:43:15;0.40;;;0.40;;
56329;SDS011;42236;48.058;10.632;2022-09-29T14:52:00;0.30;;;0.30;;
56329;SDS011;42236;48.058;10.632;2022-09-29T14:57:37;0.40;;;0.40;;
56329;SDS011;42236;48.058;10.632;2022-09-29T15:00:18;0.40;;;0.30;;
56329;SDS011;42236;48.058;10.632;2022-09-29T15:02:46;0.20;;;0.20;;
56329;SDS011;42236;48.058;10.632;2022-09-29T15:05:35;0.40;;;0.40;;
56329;SDS011;42236;48.058;10.632;2022-09-29T15:08:00;0.20;;;0.20;;
56329;SDS011;42236;48.058;10.632;2022-09-29T15:15:40;1.90;;;0.30;;
56329;SDS011;42236;48.058;10.632;2022-09-29T15:18:32;1.47;;;0.50;;
56329;SDS011;42236;48.058;10.632;2022-09-29T15:21:31;0.70;;;0.30;;
56329;SDS011;42236;48.058;10.632;2022-09-29T15:27:00;0.90;;;0.90;;
56329;SDS011;42236;48.058;10.632;2022-09-29T15:29:27;1.10;;;1.10;;
56329;SDS011;42236;48.058;10.632;2022-09-29T15:31:53;0.60;;;0.60;;
56329;SDS011;42236;48.058;10.632;2022-09-29T15:34:19;0.50;;;0.50;;
56329;SDS011;42236;48.058;10.632;2022-09-29T15:36:47;1.27;;;0.52;;
56329;SDS011;42236;48.058;10.632;2022-09-29T15:42:00;0.53;;;0.50;;
56329;SDS011;42236;48.058;10.632;2022-09-29T15:44:27;0.70;;;0.70;;
56329;SDS011;42236;48.058;10.632;2022-09-29T15:46:57;0.90;;;0.60;;
56329;SDS011;42236;48.058;10.632;2022-09-29T15:49:24;0.90;;;0.83;;
56329;SDS011;42236;48.058;10.632;2022-09-29T15:51:58;1.40;;;1.30;;
56329;SDS011;42236;48.058;10.632;2022-09-29T15:54:36;0.90;;;0.90;;
56329;SDS011;42236;48.058;10.632;2022-09-29T15:57:04;2.20;;;1.37;;
56329;SDS011;42236;48.058;10.632;2022-09-29T16:02:19;0.60;;;0.60;;
56329;SDS011;42236;48.058;10.632;2022-09-29T16:04:49;0.80;;;0.80;;
56329;SDS011;42236;48.058;10.632;2022-09-29T16:07:19;0.60;;;0.60;;
56329;SDS011;42236;48.058;10.632;2022-09-29T16:09:48;1.37;;;0.93;;
56329;SDS011;42236;48.058;10.632;2022-09-29T16:12:15;1.40;;;0.90;;
56329;SDS011;42236;48.058;10.632;2022-09-29T16:14:43;0.90;;;0.80;;
56329;SDS011;42236;48.058;10.632;2022-09-29T16:17:09;1.00;;;1.00;;
56329;SDS011;42236;48.058;10.632;2022-09-29T16:19:36;1.50;;;1.03;;
56329;SDS011;42236;48.058;10.632;2022-09-29T16:22:05;0.93;;;0.90;;
56329;SDS011;42236;48.058;10.632;2022-09-29T16:24:35;1.57;;;1.47;;
56329;SDS011;42236;48.058;10.632;2022-09-29T16:27:03;3.13;;;1.73;;
56329;SDS011;42236;48.058;10.632;2022-09-29T16:29:32;3.80;;;2.07;;
56329;SDS011;42236;48.058;10.632;2022-09-29T16:31:58;4.40;;;2.83;;
56329;SDS011;42236;48.058;10.632;2022-09-29T16:34:44;4.20;;;3.00;;
56329;SDS011;42236;48.058;10.632;2022-09-29T16:37:16;5.87;;;2.53;;
56329;SDS011;42236;48.058;10.632;2022-09-29T16:39:43;1.87;;;1.73;;
56329;SDS011;42236;48.058;10.632;2022-09-29T16:42:17;2.03;;;1.30;;
56329;SDS011;42236;48.058;10.632;2022-09-29T16:44:44;1.00;;;0.90;;
56329;SDS011;42236;48.058;10.632;2022-09-29T16:49:48;1.03;;;1.00;;
56329;SDS011;42236;48.058;10.632;2022-09-29T16:52:20;1.00;;;1.00;;
56329;SDS011;42236;48.058;10.632;2022-09-29T16:54:50;1.33;;;1.23;;
56329;SDS011;42236;48.058;10.632;2022-09-29T16:57:32;3.80;;;2.87;;
56329;SDS011;42236;48.058;10.632;2022-09-29T17:00:11;9.90;;;6.10;;
56329;SDS011;42236;48.058;10.632;2022-09-29T17:02:36;11.97;;;7.10;;
56329;SDS011;42236;48.058;10.632;2022-09-29T17:05:02;10.50;;;7.37;;
56329;SDS011;42236;48.058;10.632;2022-09-29T17:07:29;4.33;;;3.33;;
56329;SDS011;42236;48.058;10.632;2022-09-29T17:09:56;5.23;;;4.33;;
56329;SDS011;42236;48.058;10.632;2022-09-29T17:12:24;6.23;;;4.97;;
56329;SDS011;42236;48.058;10.632;2022-09-29T17:14:52;8.00;;;4.90;;
56329;SDS011;42236;48.058;10.632;2022-09-29T17:17:24;6.57;;;4.10;;
56329;SDS011;42236;48.058;10.632;2022-09-29T17:19:52;7.47;;;4.47;;
56329;SDS011;42236;48.058;10.632;2022-09-29T17:22:33;5.47;;;4.17;;
56329;SDS011;42236;48.058;10.632;2022-09-29T17:25:03;5.93;;;4.20;;
56329;SDS011;42236;48.058;10.632;2022-09-29T17:27:29;5.87;;;4.60;;
56329;SDS011;42236;48.058;10.632;2022-09-29T17:30:17;6.00;;;3.70;;
56329;SDS011;42236;48.058;10.632;2022-09-29T17:32:47;3.53;;;3.23;;
56329;SDS011;42236;48.058;10.632;2022-09-29T17:35:13;6.53;;;3.83;;
56329;SDS011;42236;48.058;10.632;2022-09-29T17:37:40;6.50;;;4.60;;
56329;SDS011;42236;48.058;10.632;2022-09-29T17:40:28;7.83;;;5.80;;
56329;SDS011;42236;48.058;10.632;2022-09-29T17:42:58;7.80;;;6.23;;
56329;SDS011;42236;48.058;10.632;2022-09-29T17:45:24;8.03;;;6.83;;
56329;SDS011;42236;48.058;10.632;2022-09-29T17:47:51;10.37;;;6.80;;
56329;SDS011;42236;48.058;10.632;2022-09-29T17:50:26;7.93;;;5.90;;
56329;SDS011;42236;48.058;10.632;2022-09-29T17:52:55;7.67;;;5.50;;
56329;SDS011;42236;48.058;10.632;2022-09-29T17:55:22;8.27;;;5.50;;
56329;SDS011;42236;48.058;10.632;2022-09-29T17:57:48;5.37;;;4.10;;
56329;SDS011;42236;48.058;10.632;2022-09-29T18:00:18;5.20;;;4.47;;
56329;SDS011;42236;48.058;10.632;2022-09-29T18:03:02;6.93;;;4.27;;
56329;SDS011;42236;48.058;10.632;2022-09-29T18:05:33;6.23;;;3.90;;
56329;SDS011;42236;48.058;10.632;2022-09-29T18:08:01;5.30;;;4.60;;
56329;SDS011;42236;48.058;10.632;2022-09-29T18:10:34;5.73;;;4.60;;
56329;SDS011;42236;48.058;10.632;2022-09-29T18:13:05;4.47;;;4.07;;
56329;SDS011;42236;48.058;10.632;2022-09-29T18:15:34;5.97;;;4.97;;
56329;SDS011;42236;48.058;10.632;2022-09-29T18:18:01;5.10;;;4.60;;
56329;SDS011;42236;48.058;10.632;2022-09-29T18:20:29;7.00;;;4.50;;
56329;SDS011;42236;48.058;10.632;2022-09-29T18:22:56;5.27;;;4.17;;